This is the latest recevied weather packets stored in our database for station/object KK7PZE-13. If no packets are shown the sender has not sent any weather packets the latest 1 day(s).
| Time | Temp. | Humidity | Pressure | Rain* | Wind** | Luminosity | Snow |
|---|---|---|---|---|---|---|---|
| 1778030227 | 20.56° C | 26% | 1010 hPa | 0 mm | 1.79 m/s, 169° | - | - |
| 1778030076 | 20.56° C | 26% | 1010 hPa | 0 mm | 1.79 m/s, 169° | - | - |
| 1778028910 | 21.11° C | 25% | 1009.7 hPa | 0 mm | 1.34 m/s, 247° | - | - |
| 1778028875 | 21.11° C | 25% | 1009.7 hPa | 0 mm | 1.34 m/s, 247° | - | - |
| 1778027789 | 21.67° C | 24% | 1009.6 hPa | 0 mm | 2.24 m/s, 226° | - | - |
| 1778027675 | 21.67° C | 24% | 1009.6 hPa | 0 mm | 2.24 m/s, 226° | - | - |
| 1778026023 | 21.11° C | 27% | 1009.7 hPa | 0 mm | 1.34 m/s, 191° | - | - |
| 1778025875 | 21.11° C | 27% | 1009.7 hPa | 0 mm | 1.34 m/s, 191° | - | - |
| 1778025457 | 21.67° C | 27% | 1009.5 hPa | 0 mm | 0.89 m/s, 162° | - | - |
| 1778025274 | 21.67° C | 27% | 1009.5 hPa | 0 mm | 0.89 m/s, 162° | - | - |
| 1778024675 | 22.22° C | 26% | 1009.5 hPa | 0 mm | 4.47 m/s, 223° | - | - |
| 1778024075 | 21.67° C | 26% | 1009.5 hPa | 0 mm | 3.13 m/s, 207° | - | - |
| 1778023474 | 21.67° C | 25% | 1009.4 hPa | 0 mm | 4.47 m/s, 172° | - | - |
| 1778022879 | 21.67° C | 27% | 1009.4 hPa | 0 mm | 1.79 m/s, 190° | - | - |
| 1778021674 | 21.11° C | 28% | 1009.5 hPa | 0 mm | 3.13 m/s, 267° | - | - |
| 1778021075 | 22.22° C | 25% | 1009.4 hPa | 0 mm | 3.13 m/s, 42° | - | - |
| 1778020474 | 22.22° C | 26% | 1009.8 hPa | 0 mm | 2.24 m/s, 293° | - | - |
| 1778018675 | 21.67° C | 26% | 1009.8 hPa | 0 mm | 2.24 m/s, 216° | - | - |
| 1778018074 | 21.67° C | 26% | 1010 hPa | 0 mm | 1.79 m/s, 226° | - | - |
| 1778017477 | 22.22° C | 27% | 1010 hPa | 0 mm | 4.02 m/s, 215° | - | - |
| 1778016875 | 22.22° C | 28% | 1010.1 hPa | 0 mm | 3.58 m/s, 191° | - | - |
| 1778016274 | 22.22° C | 30% | 1010.4 hPa | 0 mm | 3.13 m/s, 223° | - | - |
| 1778015675 | 22.22° C | 29% | 1010.3 hPa | 0 mm | 2.24 m/s, 200° | - | - |
| 1778015074 | 21.67° C | 31% | 1010.3 hPa | 0 mm | 1.79 m/s, 195° | - | - |
| 1778014476 | 22.22° C | 31% | 1010.4 hPa | 0 mm | 1.79 m/s, 162° | - | - |
* Rain latest hour (hover to see other rain measurements)
** Current wind speed in m/s (hover to see current wind gust speed)